RYR42Q LFOB-EICK
Flight info
| Callsign | RYR42Q |
|---|---|
| Flight time | 1h 27m |
| Altitude | 38000 |
| Route | LFOB/12 N0454F380 LGL1S LGL UN502 JSY DCT LIZAD DCT NAKID DCT EVCOR N160 LEDGO DCT ERTER ERTE1R EICK/16 |
| Aircraft | B738/M-SDE2E3FGHIRWXY/LB1 |
Departure
| Time | 2026-04-20 18:57 |
|---|---|
| Airport | Beauvais-Tillé airport (LFOB) |
Arrival
| Time | 2026-04-20 20:24 |
|---|---|
| Airport | Cork International Airport (EICK) |
| Time | Latitude | Longitude | Altitude | Speed | Heading |
|---|---|---|---|---|---|
| 2026-04-20 17:52 | 49.45820 | 2.11331 | 334 ft | 0 kts | 310° |
| 2026-04-20 18:50 | 49.45821 | 2.11330 | 334 ft | 1 kts | 305° |
| 2026-04-20 18:51 | 49.45803 | 2.11303 | 332 ft | 7 kts | 195° |
| 2026-04-20 18:51 | 49.45780 | 2.11354 | 334 ft | 8 kts | 75° |
| 2026-04-20 18:51 | 49.45794 | 2.11464 | 334 ft | 14 kts | 100° |
| 2026-04-20 18:51 | 49.45728 | 2.11601 | 334 ft | 17 kts | 145° |
| 2026-04-20 18:52 | 49.45650 | 2.11551 | 333 ft | 14 kts | 221° |
| 2026-04-20 18:52 | 49.45575 | 2.11450 | 336 ft | 14 kts | 222° |
| 2026-04-20 18:52 | 49.45502 | 2.11349 | 337 ft | 14 kts | 222° |
| 2026-04-20 18:52 | 49.45420 | 2.11340 | 333 ft | 15 kts | 136° |
| 2026-04-20 18:53 | 49.45354 | 2.11478 | 335 ft | 17 kts | 124° |
| 2026-04-20 18:53 | 49.45284 | 2.11638 | 338 ft | 21 kts | 123° |
| 2026-04-20 18:53 | 49.45193 | 2.11847 | 344 ft | 26 kts | 123° |
| 2026-04-20 18:53 | 49.45103 | 2.12068 | 344 ft | 13 kts | 146° |
| 2026-04-20 18:54 | 49.45095 | 2.11997 | 348 ft | 15 kts | 308° |
| 2026-04-20 18:54 | 49.45229 | 2.11765 | 351 ft | 44 kts | 304° |
| 2026-04-20 18:54 | 49.45431 | 2.11304 | 336 ft | 53 kts | 304° |
| 2026-04-20 18:54 | 49.45592 | 2.10931 | 337 ft | 36 kts | 304° |
| 2026-04-20 18:55 | 49.45706 | 2.10671 | 333 ft | 26 kts | 304° |
| 2026-04-20 18:55 | 49.45810 | 2.10479 | 331 ft | 21 kts | 331° |
| 2026-04-20 18:55 | 49.45828 | 2.10464 | 332 ft | 1 kts | 331° |
| 2026-04-20 18:55 | 49.45841 | 2.10429 | 331 ft | 8 kts | 268° |
| 2026-04-20 18:56 | 49.45813 | 2.10419 | 331 ft | 8 kts | 140° |
| 2026-04-20 18:56 | 49.45655 | 2.10786 | 334 ft | 85 kts | 124° |
| 2026-04-20 18:56 | 49.45171 | 2.11894 | 367 ft | 160 kts | 120° |
| 2026-04-20 18:56 | 49.44476 | 2.13452 | 924 ft | 189 kts | 121° |
| 2026-04-20 18:57 | 49.43839 | 2.15241 | 1850 ft | 193 kts | 96° |
| 2026-04-20 18:57 | 49.44095 | 2.17328 | 2184 ft | 221 kts | 56° |
| 2026-04-20 18:57 | 49.45370 | 2.18875 | 2110 ft | 246 kts | 20° |
| 2026-04-20 18:57 | 49.46983 | 2.18784 | 2270 ft | 232 kts | 342° |
| 2026-04-20 18:58 | 49.48292 | 2.17295 | 2237 ft | 240 kts | 316° |
| 2026-04-20 18:58 | 49.49165 | 2.15028 | 2320 ft | 261 kts | 289° |
| 2026-04-20 18:58 | 49.49233 | 2.12154 | 3079 ft | 271 kts | 270° |
| 2026-04-20 18:58 | 49.49174 | 2.09288 | 4023 ft | 273 kts | 272° |
| 2026-04-20 18:59 | 49.49164 | 2.06357 | 4949 ft | 274 kts | 270° |
| 2026-04-20 18:59 | 49.48756 | 2.03493 | 5842 ft | 279 kts | 242° |
| 2026-04-20 18:59 | 49.47527 | 2.01234 | 6840 ft | 277 kts | 219° |
| 2026-04-20 18:59 | 49.45989 | 1.99571 | 7633 ft | 281 kts | 214° |
| 2026-04-20 19:00 | 49.44319 | 1.97974 | 8438 ft | 285 kts | 213° |
| 2026-04-20 19:00 | 49.42622 | 1.96345 | 9222 ft | 289 kts | 214° |
| 2026-04-20 19:00 | 49.40928 | 1.94686 | 10112 ft | 290 kts | 216° |
| 2026-04-20 19:00 | 49.39194 | 1.92966 | 10558 ft | 307 kts | 216° |
| 2026-04-20 19:01 | 49.37333 | 1.91106 | 10738 ft | 331 kts | 216° |
| 2026-04-20 19:01 | 49.35342 | 1.89117 | 10945 ft | 352 kts | 216° |
| 2026-04-20 19:01 | 49.33256 | 1.87039 | 11426 ft | 362 kts | 216° |
| 2026-04-20 19:01 | 49.31134 | 1.84930 | 12126 ft | 365 kts | 216° |
| 2026-04-20 19:02 | 49.29001 | 1.82811 | 12887 ft | 366 kts | 217° |
| 2026-04-20 19:02 | 49.26850 | 1.80675 | 13561 ft | 371 kts | 217° |
| 2026-04-20 19:02 | 49.24671 | 1.78512 | 14199 ft | 374 kts | 217° |
| 2026-04-20 19:02 | 49.22547 | 1.76213 | 14806 ft | 374 kts | 227° |
| 2026-04-20 19:03 | 49.21010 | 1.73067 | 15423 ft | 368 kts | 244° |
| 2026-04-20 19:03 | 49.19802 | 1.69611 | 16081 ft | 369 kts | 246° |
| 2026-04-20 19:03 | 49.18611 | 1.66118 | 16689 ft | 372 kts | 246° |
| 2026-04-20 19:03 | 49.17412 | 1.62602 | 17311 ft | 375 kts | 246° |
| 2026-04-20 19:04 | 49.16195 | 1.59062 | 17903 ft | 377 kts | 245° |
| 2026-04-20 19:04 | 49.14962 | 1.55508 | 18485 ft | 380 kts | 245° |
| 2026-04-20 19:04 | 49.13712 | 1.51929 | 19016 ft | 382 kts | 245° |
| 2026-04-20 19:04 | 49.12458 | 1.48356 | 19598 ft | 382 kts | 246° |
| 2026-04-20 19:05 | 49.11200 | 1.44784 | 20173 ft | 383 kts | 246° |
| 2026-04-20 19:05 | 49.09936 | 1.41199 | 20716 ft | 384 kts | 246° |
| 2026-04-20 19:05 | 49.08668 | 1.37609 | 21243 ft | 385 kts | 246° |
| 2026-04-20 19:05 | 49.07397 | 1.34012 | 21748 ft | 386 kts | 246° |
| 2026-04-20 19:06 | 49.06116 | 1.30388 | 22140 ft | 391 kts | 245° |
| 2026-04-20 19:06 | 49.04811 | 1.26703 | 22502 ft | 396 kts | 245° |
| 2026-04-20 19:06 | 49.03500 | 1.23017 | 23025 ft | 396 kts | 245° |
| 2026-04-20 19:06 | 49.02214 | 1.19370 | 23546 ft | 396 kts | 246° |
| 2026-04-20 19:07 | 49.00928 | 1.15650 | 23965 ft | 398 kts | 246° |
| 2026-04-20 19:07 | 48.99655 | 1.11944 | 24324 ft | 400 kts | 246° |
| 2026-04-20 19:07 | 48.98409 | 1.08318 | 24672 ft | 401 kts | 246° |
| 2026-04-20 19:07 | 48.97111 | 1.04550 | 25051 ft | 403 kts | 246° |
| 2026-04-20 19:08 | 48.95808 | 1.00779 | 25479 ft | 401 kts | 247° |
| 2026-04-20 19:08 | 48.93258 | 0.93434 | 26442 ft | 396 kts | 247° |
| 2026-04-20 19:08 | 48.91974 | 0.89743 | 26933 ft | 394 kts | 247° |
| 2026-04-20 19:09 | 48.90684 | 0.86035 | 27068 ft | 401 kts | 247° |
| 2026-04-20 19:09 | 48.89367 | 0.82248 | 27136 ft | 409 kts | 247° |
| 2026-04-20 19:09 | 48.88022 | 0.78391 | 27231 ft | 416 kts | 247° |
| 2026-04-20 19:09 | 48.86661 | 0.74500 | 27511 ft | 418 kts | 247° |
| 2026-04-20 19:10 | 48.85293 | 0.70603 | 27873 ft | 418 kts | 247° |
| 2026-04-20 19:10 | 48.83927 | 0.66713 | 28195 ft | 418 kts | 247° |
| 2026-04-20 19:10 | 48.82556 | 0.62810 | 28470 ft | 420 kts | 247° |
| 2026-04-20 19:10 | 48.81179 | 0.58894 | 28724 ft | 421 kts | 248° |
| 2026-04-20 19:11 | 48.80159 | 0.54773 | 28948 ft | 414 kts | 263° |
| 2026-04-20 19:11 | 48.79909 | 0.50460 | 29266 ft | 410 kts | 273° |
| 2026-04-20 19:11 | 48.80231 | 0.46191 | 29654 ft | 406 kts | 284° |
| 2026-04-20 19:11 | 48.80943 | 0.42072 | 30075 ft | 403 kts | 286° |
| 2026-04-20 19:12 | 48.81713 | 0.37970 | 30301 ft | 405 kts | 286° |
| 2026-04-20 19:12 | 48.82495 | 0.33860 | 30506 ft | 406 kts | 286° |
| 2026-04-20 19:12 | 48.83271 | 0.29730 | 30795 ft | 406 kts | 286° |
| 2026-04-20 19:12 | 48.84032 | 0.25610 | 31092 ft | 405 kts | 285° |
| 2026-04-20 19:13 | 48.84782 | 0.21487 | 31350 ft | 406 kts | 285° |
| 2026-04-20 19:13 | 48.85526 | 0.17349 | 31575 ft | 407 kts | 285° |
| 2026-04-20 19:13 | 48.86266 | 0.13204 | 31832 ft | 407 kts | 285° |
| 2026-04-20 19:13 | 48.87004 | 0.09057 | 32118 ft | 407 kts | 285° |
| 2026-04-20 19:14 | 48.87741 | 0.04905 | 32382 ft | 407 kts | 285° |
| 2026-04-20 19:14 | 48.88477 | 0.00748 | 32626 ft | 408 kts | 285° |
| 2026-04-20 19:14 | 48.89186 | -0.03266 | 32930 ft | 406 kts | 285° |
| 2026-04-20 19:14 | 48.89914 | -0.07396 | 33364 ft | 402 kts | 285° |
| 2026-04-20 19:15 | 48.90636 | -0.11498 | 33646 ft | 402 kts | 285° |
| 2026-04-20 19:15 | 48.91359 | -0.15612 | 33863 ft | 404 kts | 285° |
| 2026-04-20 19:15 | 48.92083 | -0.19743 | 34123 ft | 404 kts | 285° |
| 2026-04-20 19:15 | 48.92804 | -0.23868 | 34397 ft | 403 kts | 285° |
| 2026-04-20 19:16 | 48.93515 | -0.27985 | 34606 ft | 403 kts | 285° |
| 2026-04-20 19:16 | 48.94216 | -0.32124 | 34791 ft | 404 kts | 285° |
| 2026-04-20 19:16 | 48.94912 | -0.36266 | 34996 ft | 405 kts | 285° |
| 2026-04-20 19:16 | 48.95598 | -0.40369 | 35219 ft | 405 kts | 285° |
| 2026-04-20 19:17 | 48.96300 | -0.44574 | 35434 ft | 405 kts | 285° |
| 2026-04-20 19:17 | 48.96985 | -0.48679 | 35642 ft | 405 kts | 285° |
| 2026-04-20 19:17 | 48.97678 | -0.52834 | 35851 ft | 406 kts | 284° |
| 2026-04-20 19:17 | 48.98380 | -0.57056 | 36044 ft | 406 kts | 284° |
| 2026-04-20 19:18 | 48.99065 | -0.61183 | 36242 ft | 407 kts | 284° |
| 2026-04-20 19:18 | 48.99756 | -0.65352 | 36440 ft | 407 kts | 284° |
| 2026-04-20 19:18 | 49.00447 | -0.69537 | 36645 ft | 407 kts | 284° |
| 2026-04-20 19:18 | 49.01136 | -0.73716 | 36833 ft | 408 kts | 284° |
| 2026-04-20 19:19 | 49.01826 | -0.77910 | 37026 ft | 408 kts | 284° |
| 2026-04-20 19:19 | 49.02513 | -0.82097 | 37216 ft | 408 kts | 284° |
| 2026-04-20 19:19 | 49.03201 | -0.86305 | 37366 ft | 409 kts | 284° |
| 2026-04-20 19:19 | 49.03890 | -0.90524 | 37526 ft | 410 kts | 284° |
| 2026-04-20 19:20 | 49.04575 | -0.94732 | 37741 ft | 410 kts | 284° |
| 2026-04-20 19:20 | 49.05260 | -0.98951 | 37921 ft | 410 kts | 284° |
| 2026-04-20 19:20 | 49.05922 | -1.03034 | 38077 ft | 410 kts | 284° |
| 2026-04-20 19:21 | 49.07284 | -1.11471 | 38153 ft | 414 kts | 284° |
| 2026-04-20 19:21 | 49.08652 | -1.19979 | 38164 ft | 413 kts | 284° |
| 2026-04-20 19:22 | 49.10033 | -1.28481 | 38171 ft | 411 kts | 284° |
| 2026-04-20 19:22 | 49.11405 | -1.36945 | 38161 ft | 410 kts | 284° |
| 2026-04-20 19:23 | 49.12765 | -1.45392 | 38169 ft | 410 kts | 284° |
| 2026-04-20 19:23 | 49.14120 | -1.53852 | 38171 ft | 410 kts | 284° |
| 2026-04-20 19:24 | 49.15466 | -1.62304 | 38172 ft | 410 kts | 284° |
| 2026-04-20 19:24 | 49.16809 | -1.70776 | 38176 ft | 410 kts | 284° |
| 2026-04-20 19:25 | 49.18144 | -1.79245 | 38168 ft | 410 kts | 283° |
| 2026-04-20 19:25 | 49.19475 | -1.87729 | 38167 ft | 410 kts | 283° |
| 2026-04-20 19:26 | 49.20802 | -1.96230 | 38164 ft | 411 kts | 283° |
| 2026-04-20 19:26 | 49.22105 | -2.04622 | 38178 ft | 412 kts | 283° |
| 2026-04-20 19:27 | 49.23512 | -2.13056 | 38180 ft | 412 kts | 285° |
| 2026-04-20 19:27 | 49.24988 | -2.21540 | 38183 ft | 413 kts | 285° |
| 2026-04-20 19:28 | 49.26457 | -2.30051 | 38184 ft | 413 kts | 284° |
| 2026-04-20 19:28 | 49.27909 | -2.38572 | 38183 ft | 414 kts | 284° |
| 2026-04-20 19:29 | 49.29356 | -2.47129 | 38186 ft | 415 kts | 284° |
| 2026-04-20 19:29 | 49.30793 | -2.55680 | 38184 ft | 415 kts | 284° |
| 2026-04-20 19:30 | 49.32225 | -2.64247 | 38181 ft | 415 kts | 284° |
| 2026-04-20 19:30 | 49.33651 | -2.72816 | 38179 ft | 415 kts | 284° |
| 2026-04-20 19:31 | 49.35071 | -2.81387 | 38185 ft | 415 kts | 284° |
| 2026-04-20 19:31 | 49.36482 | -2.89957 | 38181 ft | 414 kts | 284° |
| 2026-04-20 19:32 | 49.37887 | -2.98529 | 38182 ft | 414 kts | 284° |
| 2026-04-20 19:32 | 49.39032 | -3.05544 | 38184 ft | 414 kts | 284° |
| 2026-04-20 19:33 | 49.40650 | -3.15512 | 38179 ft | 414 kts | 284° |
| 2026-04-20 19:33 | 49.42038 | -3.24108 | 38186 ft | 414 kts | 284° |
| 2026-04-20 19:34 | 49.43195 | -3.31311 | 38191 ft | 414 kts | 284° |
| 2026-04-20 19:34 | 49.44562 | -3.39861 | 38191 ft | 415 kts | 284° |
| 2026-04-20 19:35 | 49.45933 | -3.48481 | 38184 ft | 415 kts | 283° |
| 2026-04-20 19:35 | 49.47295 | -3.57088 | 38205 ft | 415 kts | 283° |
| 2026-04-20 19:36 | 49.48655 | -3.65726 | 38186 ft | 416 kts | 283° |
| 2026-04-20 19:36 | 49.50008 | -3.74366 | 38192 ft | 416 kts | 283° |
| 2026-04-20 19:37 | 49.51356 | -3.83020 | 38190 ft | 416 kts | 283° |
| 2026-04-20 19:37 | 49.53552 | -3.91220 | 38192 ft | 417 kts | 300° |
| 2026-04-20 19:38 | 49.57026 | -3.98409 | 38189 ft | 419 kts | 306° |
| 2026-04-20 19:38 | 49.60548 | -4.05383 | 38176 ft | 419 kts | 306° |
| 2026-04-20 19:39 | 49.64106 | -4.12497 | 38194 ft | 419 kts | 306° |
| 2026-04-20 19:39 | 49.67632 | -4.19608 | 38219 ft | 419 kts | 306° |
| 2026-04-20 19:40 | 49.71171 | -4.26778 | 38202 ft | 420 kts | 306° |
| 2026-04-20 19:40 | 49.74715 | -4.33981 | 38194 ft | 420 kts | 305° |
| 2026-04-20 19:41 | 49.78250 | -4.41187 | 38195 ft | 420 kts | 305° |
| 2026-04-20 19:41 | 49.81780 | -4.48400 | 38203 ft | 420 kts | 305° |
| 2026-04-20 19:42 | 49.85285 | -4.55582 | 38184 ft | 420 kts | 305° |
| 2026-04-20 19:42 | 49.88803 | -4.62808 | 38221 ft | 420 kts | 305° |
| 2026-04-20 19:43 | 49.91745 | -4.68869 | 38212 ft | 420 kts | 305° |
| 2026-04-20 19:43 | 49.95822 | -4.77288 | 38204 ft | 420 kts | 305° |
| 2026-04-20 19:44 | 49.99325 | -4.84544 | 38200 ft | 419 kts | 305° |
| 2026-04-20 19:44 | 50.02813 | -4.91790 | 38196 ft | 419 kts | 305° |
| 2026-04-20 19:45 | 50.06303 | -4.99058 | 38194 ft | 419 kts | 305° |
| 2026-04-20 19:45 | 50.09738 | -5.06234 | 38199 ft | 419 kts | 305° |
| 2026-04-20 19:46 | 50.13220 | -5.13525 | 38185 ft | 419 kts | 305° |
| 2026-04-20 19:46 | 50.16693 | -5.20819 | 38187 ft | 419 kts | 305° |
| 2026-04-20 19:47 | 50.20168 | -5.28138 | 38189 ft | 419 kts | 305° |
| 2026-04-20 19:47 | 50.23637 | -5.35464 | 38188 ft | 420 kts | 305° |
| 2026-04-20 19:48 | 50.27082 | -5.42759 | 38192 ft | 420 kts | 305° |
| 2026-04-20 19:48 | 50.30543 | -5.50110 | 38202 ft | 420 kts | 305° |
| 2026-04-20 19:49 | 50.34001 | -5.57473 | 38205 ft | 420 kts | 304° |
| 2026-04-20 19:49 | 50.37458 | -5.64854 | 38199 ft | 420 kts | 304° |
| 2026-04-20 19:50 | 50.40907 | -5.72241 | 38213 ft | 420 kts | 304° |
| 2026-04-20 19:50 | 50.44354 | -5.79643 | 38214 ft | 420 kts | 304° |
| 2026-04-20 19:51 | 50.47798 | -5.87060 | 38207 ft | 420 kts | 304° |
| 2026-04-20 19:51 | 50.51239 | -5.94493 | 38233 ft | 421 kts | 304° |
| 2026-04-20 19:52 | 50.54630 | -6.01838 | 38226 ft | 421 kts | 304° |
| 2026-04-20 19:52 | 50.58065 | -6.09298 | 38218 ft | 421 kts | 304° |
| 2026-04-20 19:53 | 50.61472 | -6.16719 | 38216 ft | 421 kts | 304° |
| 2026-04-20 19:53 | 50.64903 | -6.24212 | 38234 ft | 421 kts | 304° |
| 2026-04-20 19:54 | 50.68325 | -6.31708 | 38237 ft | 421 kts | 304° |
| 2026-04-20 19:54 | 50.71750 | -6.39233 | 38238 ft | 422 kts | 304° |
| 2026-04-20 19:54 | 50.73461 | -6.43001 | 37963 ft | 426 kts | 304° |
| 2026-04-20 19:55 | 50.75193 | -6.46820 | 37472 ft | 426 kts | 304° |
| 2026-04-20 19:55 | 50.76912 | -6.50614 | 36909 ft | 423 kts | 304° |
| 2026-04-20 19:55 | 50.78616 | -6.54382 | 36320 ft | 422 kts | 304° |
| 2026-04-20 19:55 | 50.80319 | -6.58152 | 35680 ft | 421 kts | 304° |
| 2026-04-20 19:56 | 50.82017 | -6.61918 | 35051 ft | 420 kts | 304° |
| 2026-04-20 19:56 | 50.83709 | -6.65676 | 34415 ft | 420 kts | 304° |
| 2026-04-20 19:56 | 50.85403 | -6.69444 | 33688 ft | 420 kts | 303° |
| 2026-04-20 19:56 | 50.87093 | -6.73207 | 33034 ft | 418 kts | 303° |
| 2026-04-20 19:57 | 50.88762 | -6.76928 | 32577 ft | 411 kts | 303° |
| 2026-04-20 19:57 | 50.90409 | -6.80604 | 32099 ft | 406 kts | 303° |
| 2026-04-20 19:57 | 50.92031 | -6.84231 | 31621 ft | 402 kts | 303° |
| 2026-04-20 19:57 | 50.93639 | -6.87833 | 31156 ft | 397 kts | 303° |
| 2026-04-20 19:58 | 50.95204 | -6.91342 | 30714 ft | 393 kts | 303° |
| 2026-04-20 19:58 | 50.96789 | -6.94903 | 30255 ft | 388 kts | 303° |
| 2026-04-20 19:58 | 50.98340 | -6.98390 | 29753 ft | 384 kts | 303° |
| 2026-04-20 19:58 | 50.99818 | -7.01721 | 29285 ft | 379 kts | 303° |
| 2026-04-20 19:59 | 51.01327 | -7.05124 | 28816 ft | 375 kts | 303° |
| 2026-04-20 19:59 | 51.02821 | -7.08497 | 28346 ft | 371 kts | 303° |
| 2026-04-20 19:59 | 51.04298 | -7.11836 | 27890 ft | 368 kts | 303° |
| 2026-04-20 19:59 | 51.05743 | -7.15106 | 27355 ft | 367 kts | 303° |
| 2026-04-20 20:00 | 51.07209 | -7.18433 | 26678 ft | 368 kts | 303° |
| 2026-04-20 20:00 | 51.08692 | -7.21799 | 25987 ft | 365 kts | 303° |
| 2026-04-20 20:00 | 51.10144 | -7.25097 | 25342 ft | 363 kts | 303° |
| 2026-04-20 20:00 | 51.11568 | -7.28337 | 24705 ft | 361 kts | 303° |
| 2026-04-20 20:01 | 51.13002 | -7.31605 | 24074 ft | 359 kts | 303° |
| 2026-04-20 20:01 | 51.14427 | -7.34855 | 23376 ft | 357 kts | 303° |
| 2026-04-20 20:01 | 51.15846 | -7.38097 | 22645 ft | 356 kts | 303° |
| 2026-04-20 20:01 | 51.17258 | -7.41325 | 21923 ft | 354 kts | 303° |
| 2026-04-20 20:02 | 51.18659 | -7.44533 | 21221 ft | 352 kts | 303° |
| 2026-04-20 20:02 | 51.20057 | -7.47736 | 20539 ft | 351 kts | 303° |
| 2026-04-20 20:02 | 51.21446 | -7.50923 | 19865 ft | 349 kts | 303° |
| 2026-04-20 20:02 | 51.22830 | -7.54103 | 19200 ft | 348 kts | 304° |
| 2026-04-20 20:03 | 51.24264 | -7.57190 | 18573 ft | 347 kts | 310° |
| 2026-04-20 20:03 | 51.25967 | -7.59914 | 17851 ft | 346 kts | 315° |
| 2026-04-20 20:03 | 51.27721 | -7.62544 | 17131 ft | 345 kts | 316° |
| 2026-04-20 20:03 | 51.29468 | -7.65155 | 16426 ft | 344 kts | 316° |
| 2026-04-20 20:04 | 51.31209 | -7.67768 | 15741 ft | 343 kts | 316° |
| 2026-04-20 20:04 | 51.32941 | -7.70381 | 15074 ft | 341 kts | 316° |
| 2026-04-20 20:04 | 51.34663 | -7.72989 | 14423 ft | 340 kts | 316° |
| 2026-04-20 20:04 | 51.36373 | -7.75588 | 13733 ft | 339 kts | 316° |
| 2026-04-20 20:05 | 51.38077 | -7.78183 | 13012 ft | 338 kts | 316° |
| 2026-04-20 20:05 | 51.39776 | -7.80775 | 12308 ft | 337 kts | 316° |
| 2026-04-20 20:05 | 51.41471 | -7.83364 | 11620 ft | 336 kts | 316° |
| 2026-04-20 20:05 | 51.43163 | -7.85954 | 10945 ft | 336 kts | 316° |
| 2026-04-20 20:06 | 51.44830 | -7.88507 | 10296 ft | 335 kts | 316° |
| 2026-04-20 20:06 | 51.46514 | -7.91089 | 9587 ft | 335 kts | 316° |
| 2026-04-20 20:06 | 51.48194 | -7.93670 | 8879 ft | 334 kts | 316° |
| 2026-04-20 20:06 | 51.49861 | -7.96232 | 8447 ft | 326 kts | 316° |
| 2026-04-20 20:07 | 51.51459 | -7.98689 | 8303 ft | 311 kts | 316° |
| 2026-04-20 20:07 | 51.52936 | -8.00963 | 8232 ft | 294 kts | 316° |
| 2026-04-20 20:07 | 51.54370 | -8.03173 | 8218 ft | 278 kts | 316° |
| 2026-04-20 20:07 | 51.55744 | -8.05288 | 8204 ft | 270 kts | 317° |
| 2026-04-20 20:08 | 51.57293 | -8.06957 | 8165 ft | 270 kts | 336° |
| 2026-04-20 20:08 | 51.59019 | -8.08161 | 8149 ft | 271 kts | 337° |
| 2026-04-20 20:08 | 51.60752 | -8.09345 | 8142 ft | 272 kts | 338° |
| 2026-04-20 20:08 | 51.62501 | -8.10549 | 8145 ft | 275 kts | 338° |
| 2026-04-20 20:09 | 51.64261 | -8.11773 | 8157 ft | 274 kts | 337° |
| 2026-04-20 20:09 | 51.65996 | -8.12991 | 8150 ft | 271 kts | 337° |
| 2026-04-20 20:09 | 51.67719 | -8.14207 | 8155 ft | 270 kts | 337° |
| 2026-04-20 20:09 | 51.69444 | -8.15432 | 8156 ft | 272 kts | 337° |
| 2026-04-20 20:10 | 51.71171 | -8.16662 | 8153 ft | 272 kts | 337° |
| 2026-04-20 20:10 | 51.72915 | -8.17906 | 8089 ft | 276 kts | 337° |
| 2026-04-20 20:10 | 51.74687 | -8.19172 | 7821 ft | 281 kts | 337° |
| 2026-04-20 20:10 | 51.76466 | -8.20446 | 7573 ft | 279 kts | 338° |
| 2026-04-20 20:11 | 51.78237 | -8.21715 | 7322 ft | 277 kts | 338° |
| 2026-04-20 20:11 | 51.79994 | -8.22975 | 7096 ft | 275 kts | 338° |
| 2026-04-20 20:11 | 51.81704 | -8.24204 | 7068 ft | 262 kts | 338° |
| 2026-04-20 20:11 | 51.83321 | -8.25368 | 6960 ft | 247 kts | 339° |
| 2026-04-20 20:12 | 51.84846 | -8.26467 | 6874 ft | 233 kts | 338° |
| 2026-04-20 20:12 | 51.86287 | -8.27503 | 6758 ft | 221 kts | 339° |
| 2026-04-20 20:12 | 51.87654 | -8.28487 | 6646 ft | 209 kts | 339° |
| 2026-04-20 20:13 | 51.90276 | -8.30372 | 6134 ft | 204 kts | 340° |
| 2026-04-20 20:13 | 51.91566 | -8.31302 | 5886 ft | 201 kts | 339° |
| 2026-04-20 20:13 | 51.92831 | -8.32214 | 5658 ft | 197 kts | 338° |
| 2026-04-20 20:13 | 51.94069 | -8.33106 | 5382 ft | 193 kts | 339° |
| 2026-04-20 20:14 | 51.95286 | -8.33985 | 5123 ft | 191 kts | 339° |
| 2026-04-20 20:14 | 51.96492 | -8.34856 | 4854 ft | 189 kts | 339° |
| 2026-04-20 20:14 | 51.97667 | -8.35705 | 4593 ft | 186 kts | 339° |
| 2026-04-20 20:14 | 51.98847 | -8.36559 | 4335 ft | 186 kts | 340° |
| 2026-04-20 20:15 | 52.00021 | -8.37408 | 4080 ft | 185 kts | 340° |
| 2026-04-20 20:15 | 52.01199 | -8.38260 | 3823 ft | 185 kts | 340° |
| 2026-04-20 20:15 | 52.02380 | -8.39116 | 3559 ft | 186 kts | 339° |
| 2026-04-20 20:15 | 52.03561 | -8.39972 | 3298 ft | 186 kts | 339° |
| 2026-04-20 20:16 | 52.04742 | -8.40829 | 3072 ft | 186 kts | 339° |
| 2026-04-20 20:16 | 52.05931 | -8.41691 | 3020 ft | 187 kts | 339° |
| 2026-04-20 20:16 | 52.07004 | -8.42852 | 2976 ft | 189 kts | 306° |
| 2026-04-20 20:16 | 52.07336 | -8.44861 | 2999 ft | 188 kts | 258° |
| 2026-04-20 20:17 | 52.06928 | -8.46851 | 3009 ft | 187 kts | 246° |
| 2026-04-20 20:17 | 52.06481 | -8.48833 | 3004 ft | 186 kts | 246° |
| 2026-04-20 20:17 | 52.06037 | -8.50803 | 3005 ft | 185 kts | 246° |
| 2026-04-20 20:17 | 52.05594 | -8.52764 | 3001 ft | 185 kts | 246° |
| 2026-04-20 20:18 | 52.05149 | -8.54727 | 2993 ft | 184 kts | 246° |
| 2026-04-20 20:18 | 52.04710 | -8.56665 | 2984 ft | 182 kts | 246° |
| 2026-04-20 20:18 | 52.04243 | -8.58555 | 2981 ft | 178 kts | 234° |
| 2026-04-20 20:18 | 52.03322 | -8.59650 | 3002 ft | 165 kts | 181° |
| 2026-04-20 20:19 | 52.02203 | -8.59338 | 3012 ft | 164 kts | 161° |
| 2026-04-20 20:19 | 52.01131 | -8.58941 | 2996 ft | 151 kts | 162° |
| 2026-04-20 20:19 | 52.00154 | -8.58519 | 2995 ft | 141 kts | 159° |
| 2026-04-20 20:19 | 51.99242 | -8.58037 | 3017 ft | 136 kts | 156° |
| 2026-04-20 20:20 | 51.98657 | -8.57708 | 3000 ft | 133 kts | 156° |
| 2026-04-20 20:20 | 51.97786 | -8.57202 | 3014 ft | 133 kts | 156° |
| 2026-04-20 20:20 | 51.96912 | -8.56688 | 2988 ft | 136 kts | 156° |
| 2026-04-20 20:20 | 51.95717 | -8.55981 | 2791 ft | 139 kts | 156° |
| 2026-04-20 20:21 | 51.94817 | -8.55448 | 2606 ft | 135 kts | 156° |
| 2026-04-20 20:21 | 51.94226 | -8.55099 | 2482 ft | 134 kts | 155° |
| 2026-04-20 20:21 | 51.93358 | -8.54584 | 2298 ft | 132 kts | 156° |
| 2026-04-20 20:21 | 51.92210 | -8.53903 | 2067 ft | 133 kts | 156° |
| 2026-04-20 20:22 | 51.91620 | -8.53547 | 1936 ft | 133 kts | 156° |
| 2026-04-20 20:22 | 51.90754 | -8.53039 | 1748 ft | 132 kts | 156° |
| 2026-04-20 20:22 | 51.89892 | -8.52535 | 1543 ft | 132 kts | 156° |
| 2026-04-20 20:22 | 51.89031 | -8.52035 | 1361 ft | 135 kts | 155° |
| 2026-04-20 20:23 | 51.88151 | -8.51510 | 1190 ft | 135 kts | 156° |
| 2026-04-20 20:23 | 51.87265 | -8.50996 | 1003 ft | 135 kts | 155° |
| 2026-04-20 20:23 | 51.86374 | -8.50449 | 839 ft | 138 kts | 154° |
| 2026-04-20 20:23 | 51.85473 | -8.49916 | 658 ft | 136 kts | 157° |
| 2026-04-20 20:24 | 51.84629 | -8.49421 | 528 ft | 117 kts | 154° |
| 2026-04-20 20:24 | 51.84024 | -8.49048 | 503 ft | 52 kts | 160° |
| 2026-04-20 20:24 | 51.83709 | -8.48861 | 503 ft | 45 kts | 160° |
| 2026-04-20 20:24 | 51.83539 | -8.48759 | 503 ft | 14 kts | 159° |
| 2026-04-20 20:25 | 51.83449 | -8.48704 | 503 ft | 14 kts | 159° |
| 2026-04-20 20:25 | 51.83361 | -8.48653 | 503 ft | 13 kts | 160° |
| 2026-04-20 20:25 | 51.83291 | -8.48555 | 503 ft | 14 kts | 118° |
| 2026-04-20 20:25 | 51.83239 | -8.48555 | 503 ft | 8 kts | 260° |
| 2026-04-20 20:26 | 51.83286 | -8.48614 | 503 ft | 10 kts | 340° |
| 2026-04-20 20:26 | 51.83364 | -8.48661 | 503 ft | 14 kts | 340° |
| 2026-04-20 20:26 | 51.83474 | -8.48726 | 503 ft | 19 kts | 340° |
| 2026-04-20 20:26 | 51.83618 | -8.48809 | 503 ft | 24 kts | 340° |
| 2026-04-20 20:27 | 51.83797 | -8.48915 | 503 ft | 32 kts | 340° |
| 2026-04-20 20:27 | 51.84047 | -8.49061 | 503 ft | 44 kts | 340° |
| 2026-04-20 20:27 | 51.84303 | -8.49149 | 503 ft | 24 kts | 46° |
| 2026-04-20 20:27 | 51.84355 | -8.49004 | 503 ft | 14 kts | 45° |
| 2026-04-20 20:28 | 51.84445 | -8.49014 | 503 ft | 13 kts | 342° |
| 2026-04-20 20:28 | 51.84530 | -8.49065 | 503 ft | 13 kts | 341° |
| 2026-04-20 20:28 | 51.84612 | -8.49113 | 503 ft | 12 kts | 340° |
| 2026-04-20 20:28 | 51.84692 | -8.49161 | 503 ft | 11 kts | 340° |
| 2026-04-20 20:29 | 51.84759 | -8.49198 | 503 ft | 10 kts | 343° |
| 2026-04-20 20:29 | 51.84806 | -8.49211 | 503 ft | 2 kts | 3° |
| 2026-04-20 20:29 | 51.84814 | -8.49188 | 503 ft | 3 kts | 71° |
| 2026-04-20 20:29 | 51.84820 | -8.49162 | 503 ft | 2 kts | 71° |
| 2026-04-20 20:30 | 51.84825 | -8.49137 | 503 ft | 2 kts | 71° |
| 2026-04-20 20:30 | 51.84831 | -8.49112 | 503 ft | 2 kts | 70° |
| 2026-04-20 20:30 | 51.84836 | -8.49089 | 503 ft | 2 kts | 70° |
| 2026-04-20 20:30 | 51.84841 | -8.49067 | 503 ft | 2 kts | 68° |
| 2026-04-20 20:31 | 51.84843 | -8.49061 | 503 ft | 0 kts | 68° |